createdAt,value
2019-05-19T00:00:36.921Z,14.70
2019-05-19T00:03:04.553Z,14.60
2019-05-19T00:05:32.142Z,14.60
2019-05-19T00:07:59.712Z,14.50
2019-05-19T00:10:27.315Z,14.50
2019-05-19T00:12:54.895Z,14.60
2019-05-19T00:15:22.540Z,14.70
2019-05-19T00:17:50.121Z,14.70
2019-05-19T00:20:17.723Z,14.70
2019-05-19T00:22:45.346Z,14.70
2019-05-19T00:25:12.928Z,14.60
2019-05-19T00:27:40.511Z,14.50
2019-05-19T00:30:08.447Z,14.50
2019-05-19T00:32:36.899Z,14.50
2019-05-19T00:35:04.461Z,14.50
2019-05-19T00:37:32.044Z,14.50
2019-05-19T00:39:59.621Z,14.40
2019-05-19T00:42:27.233Z,14.40
2019-05-19T00:44:54.817Z,14.30
2019-05-19T00:47:22.428Z,14.30
2019-05-19T00:49:50.012Z,14.30
2019-05-19T00:52:17.686Z,14.30
2019-05-19T00:54:45.227Z,14.30
2019-05-19T00:57:13.579Z,14.40
2019-05-19T00:59:41.183Z,14.30
2019-05-19T01:02:08.766Z,14.40
2019-05-19T01:04:36.373Z,14.40
2019-05-19T01:07:03.952Z,14.40
2019-05-19T01:09:32.720Z,14.30
2019-05-19T01:12:00.298Z,14.30
2019-05-19T01:14:27.891Z,14.30
2019-05-19T01:16:55.499Z,14.30
2019-05-19T01:19:23.080Z,14.30
2019-05-19T01:21:50.666Z,14.30
2019-05-19T01:24:19.043Z,14.40
2019-05-19T01:26:47.393Z,14.40
2019-05-19T01:29:14.974Z,14.40
2019-05-19T01:31:43.362Z,14.50
2019-05-19T01:34:11.751Z,14.50
2019-05-19T01:36:39.282Z,14.50
2019-05-19T01:39:06.892Z,14.40
2019-05-19T01:41:34.535Z,14.40
2019-05-19T01:44:02.108Z,14.30
2019-05-19T01:46:30.004Z,14.30
2019-05-19T01:48:57.583Z,14.30
2019-05-19T01:51:25.565Z,14.20
2019-05-19T01:53:53.149Z,14.20
2019-05-19T01:56:21.532Z,14.30
2019-05-19T01:58:49.920Z,14.30
2019-05-19T02:01:18.273Z,14.30
2019-05-19T02:03:45.849Z,14.30
2019-05-19T02:06:14.230Z,14.40
2019-05-19T02:08:42.571Z,14.40
2019-05-19T02:11:10.528Z,14.40
2019-05-19T02:13:38.107Z,14.40
2019-05-19T02:16:05.692Z,14.30
2019-05-19T02:18:34.075Z,14.30
2019-05-19T02:21:02.489Z,14.20
2019-05-19T02:23:30.055Z,14.20
2019-05-19T02:25:57.638Z,14.30
2019-05-19T02:28:25.630Z,14.20
2019-05-19T02:30:53.213Z,14.30
2019-05-19T02:33:21.565Z,14.30
2019-05-19T02:35:49.377Z,14.30
2019-05-19T02:38:17.716Z,14.20
2019-05-19T02:40:45.294Z,14.20
2019-05-19T02:43:12.937Z,14.20
2019-05-19T02:45:40.491Z,14.20
2019-05-19T02:48:08.083Z,14.10
2019-05-19T02:50:50.840Z,14.10
2019-05-19T02:53:03.287Z,14.10
2019-05-19T02:55:30.870Z,14.10
2019-05-19T02:57:59.288Z,14.10
2019-05-19T03:00:35.802Z,14.10
2019-05-19T03:03:03.491Z,14.10
2019-05-19T03:05:31.056Z,14.10
2019-05-19T03:07:59.401Z,14.10
2019-05-19T03:10:27.081Z,14.10
2019-05-19T03:12:55.221Z,14.10
2019-05-19T03:15:22.809Z,14.10
2019-05-19T03:17:50.424Z,14.10
2019-05-19T03:20:18.056Z,14.10
2019-05-19T03:22:45.626Z,14.10
2019-05-19T03:25:14.083Z,14.10
2019-05-19T03:27:41.666Z,14.10
2019-05-19T03:30:25.190Z,14.10
2019-05-19T03:32:52.776Z,14.10
2019-05-19T03:35:20.352Z,14.10
2019-05-19T03:37:47.962Z,14.00
2019-05-19T03:40:21.076Z,14.00
2019-05-19T03:42:51.665Z,14.00
2019-05-19T03:45:19.275Z,14.00
2019-05-19T03:48:40.519Z,14.00
2019-05-19T03:51:08.116Z,14.00
2019-05-19T03:53:35.714Z,14.00
2019-05-19T03:56:04.093Z,13.90
2019-05-19T03:58:32.456Z,13.90
2019-05-19T04:01:00.026Z,13.90
2019-05-19T04:03:28.420Z,13.90
2019-05-19T04:05:56.771Z,14.00
2019-05-19T04:08:24.418Z,13.90
2019-05-19T04:10:51.992Z,13.90
2019-05-19T04:13:19.584Z,13.90
2019-05-19T04:15:48.026Z,13.90
2019-05-19T04:18:15.616Z,13.90
2019-05-19T04:20:43.206Z,13.90
2019-05-19T04:23:10.826Z,14.00
2019-05-19T04:25:38.419Z,14.00
2019-05-19T04:28:06.016Z,13.90
2019-05-19T04:30:33.929Z,14.10
2019-05-19T04:33:01.519Z,14.10
2019-05-19T04:35:29.118Z,14.20
2019-05-19T04:37:56.726Z,14.40
2019-05-19T04:40:25.078Z,14.30
2019-05-19T04:42:52.700Z,14.30
2019-05-19T04:45:20.295Z,14.30
2019-05-19T04:47:47.873Z,14.40
2019-05-19T04:50:15.497Z,14.40
2019-05-19T04:52:43.088Z,14.30
2019-05-19T04:55:10.674Z,14.40
2019-05-19T04:57:39.064Z,14.50
2019-05-19T05:00:07.433Z,14.40
2019-05-19T05:02:35.015Z,14.40
2019-05-19T05:05:02.637Z,14.40
2019-05-19T05:07:30.525Z,14.30
2019-05-19T05:09:58.997Z,14.30
2019-05-19T05:12:26.585Z,14.30
2019-05-19T05:14:54.179Z,14.30
2019-05-19T05:17:21.808Z,14.30
2019-05-19T05:19:50.162Z,14.20
2019-05-19T05:22:22.065Z,14.20
2019-05-19T05:24:45.683Z,14.20
2019-05-19T05:27:13.320Z,14.20
2019-05-19T05:29:40.909Z,14.10
2019-05-19T05:32:08.484Z,14.10
2019-05-19T05:34:36.144Z,14.10
2019-05-19T05:37:03.687Z,14.10
2019-05-19T05:39:31.298Z,14.10
2019-05-19T05:41:58.895Z,14.10
2019-05-19T05:44:27.015Z,14.10
2019-05-19T05:46:55.366Z,14.10
2019-05-19T05:49:22.959Z,14.10
2019-05-19T05:51:51.363Z,14.20
2019-05-19T05:54:18.944Z,14.20
2019-05-19T05:56:46.531Z,14.30
2019-05-19T05:59:14.155Z,14.20
2019-05-19T06:01:41.750Z,14.10
2019-05-19T06:04:09.330Z,14.10
2019-05-19T06:06:36.944Z,14.00
2019-05-19T06:09:04.528Z,14.10
2019-05-19T06:11:32.119Z,14.10
2019-05-19T06:13:59.731Z,14.10
2019-05-19T06:16:27.616Z,14.10
2019-05-19T06:18:56.890Z,14.10
2019-05-19T06:21:22.860Z,14.10
2019-05-19T06:23:50.450Z,14.30
2019-05-19T06:26:18.853Z,14.30
2019-05-19T06:28:46.446Z,14.30
2019-05-19T06:31:14.029Z,14.30
2019-05-19T06:33:42.010Z,14.30
2019-05-19T06:36:09.595Z,14.30
2019-05-19T06:38:37.945Z,14.30
2019-05-19T06:41:05.576Z,14.30
2019-05-19T06:43:33.181Z,14.30
2019-05-19T06:46:00.757Z,14.40
2019-05-19T06:48:29.154Z,14.40
2019-05-19T06:50:56.732Z,14.40
2019-05-19T06:53:24.323Z,14.40
2019-05-19T06:55:52.000Z,14.40
2019-05-19T06:58:19.628Z,14.40
2019-05-19T07:00:47.215Z,14.60
2019-05-19T07:03:15.343Z,14.60
2019-05-19T07:05:42.940Z,14.70
2019-05-19T07:08:10.519Z,14.70
2019-05-19T07:10:38.135Z,14.70
2019-05-19T07:13:05.726Z,14.70
2019-05-19T07:15:33.342Z,14.80
2019-05-19T07:18:00.948Z,14.90
2019-05-19T07:20:28.942Z,15.00
2019-05-19T07:22:56.532Z,15.10
2019-05-19T07:25:24.881Z,15.00
2019-05-19T07:27:52.518Z,15.00
2019-05-19T07:30:20.113Z,15.00
2019-05-19T07:32:47.704Z,15.20
2019-05-19T07:35:15.340Z,15.20
2019-05-19T07:37:42.939Z,15.10
2019-05-19T07:40:11.962Z,15.10
2019-05-19T07:42:39.603Z,15.10
2019-05-19T07:45:07.188Z,15.00
2019-05-19T07:47:34.783Z,15.00
2019-05-19T07:50:02.408Z,15.00
2019-05-19T07:52:30.000Z,15.10
2019-05-19T07:54:57.627Z,15.10
2019-05-19T07:57:25.216Z,15.10
2019-05-19T07:59:52.894Z,15.20
2019-05-19T08:02:21.204Z,15.50
2019-05-19T08:04:48.794Z,15.50
2019-05-19T08:07:16.379Z,15.60
2019-05-19T08:09:44.029Z,15.70
2019-05-19T08:12:11.619Z,15.80
2019-05-19T08:14:39.209Z,15.90
2019-05-19T08:17:06.860Z,16.00
2019-05-19T08:19:35.212Z,16.20
2019-05-19T08:22:02.810Z,16.10
2019-05-19T08:24:31.180Z,16.30
2019-05-19T08:26:59.527Z,16.30
2019-05-19T08:29:27.155Z,16.30
2019-05-19T08:31:54.877Z,16.30
2019-05-19T08:34:22.351Z,16.50
2019-05-19T08:36:50.750Z,16.80
2019-05-19T08:39:18.334Z,16.70
2019-05-19T08:41:47.099Z,16.80
2019-05-19T08:44:14.503Z,16.90
2019-05-19T08:46:42.084Z,16.90
2019-05-19T08:49:09.662Z,17.00
2019-05-19T08:51:38.116Z,17.10
2019-05-19T08:54:14.507Z,17.00
2019-05-19T08:56:34.088Z,17.40
2019-05-19T08:59:01.705Z,17.30
2019-05-19T09:01:29.295Z,17.50
2019-05-19T09:03:57.783Z,17.80
2019-05-19T09:06:25.284Z,17.70
2019-05-19T09:08:52.913Z,17.80
2019-05-19T09:11:20.462Z,18.00
2019-05-19T09:13:48.726Z,18.00
2019-05-19T09:16:16.318Z,18.00
2019-05-19T09:19:39.613Z,18.10
2019-05-19T09:22:07.191Z,18.00
2019-05-19T09:24:37.288Z,18.00
2019-05-19T09:27:02.487Z,17.90
2019-05-19T09:29:31.130Z,17.80
2019-05-19T09:31:58.690Z,17.80
2019-05-19T09:34:26.300Z,17.80
2019-05-19T09:36:53.879Z,17.80
2019-05-19T09:39:21.512Z,17.80
2019-05-19T09:41:49.877Z,17.90
2019-05-19T09:44:18.231Z,18.20
2019-05-19T09:46:45.833Z,18.20
2019-05-19T09:49:28.471Z,18.30
2019-05-19T09:51:56.095Z,18.40
2019-05-19T09:54:24.955Z,18.60
2019-05-19T09:56:52.560Z,18.60
2019-05-19T09:59:20.224Z,18.70
2019-05-19T10:01:48.580Z,18.90
2019-05-19T10:04:16.156Z,18.90
2019-05-19T10:06:43.813Z,18.90
2019-05-19T10:09:32.522Z,18.90
2019-05-19T10:12:02.869Z,18.90
2019-05-19T10:14:30.451Z,18.90
2019-05-19T10:16:58.046Z,18.90
2019-05-19T10:19:25.708Z,19.00
2019-05-19T10:21:54.042Z,18.90
2019-05-19T10:24:21.625Z,18.90
2019-05-19T10:26:50.036Z,18.90
2019-05-19T10:29:17.615Z,18.90
2019-05-19T10:31:45.201Z,18.90
2019-05-19T10:34:12.874Z,18.90
2019-05-19T10:36:40.471Z,19.00
2019-05-19T10:39:08.823Z,19.20
2019-05-19T10:41:36.460Z,19.20
2019-05-19T10:44:04.049Z,19.30
2019-05-19T10:46:31.630Z,19.40
2019-05-19T10:49:00.778Z,19.60
2019-05-19T10:51:28.361Z,19.60
2019-05-19T10:53:56.086Z,19.70
2019-05-19T10:56:24.357Z,19.90
2019-05-19T10:58:51.949Z,19.90
2019-05-19T11:01:19.546Z,19.90
2019-05-19T11:03:47.942Z,20.10
2019-05-19T11:06:15.561Z,20.00
2019-05-19T11:08:43.135Z,20.10
2019-05-19T11:11:10.766Z,20.10
2019-05-19T11:13:38.339Z,20.10
2019-05-19T11:16:05.918Z,20.10
2019-05-19T11:18:33.526Z,20.20
2019-05-19T11:21:01.433Z,20.30
2019-05-19T11:23:29.013Z,20.50
2019-05-19T11:25:56.591Z,20.50
2019-05-19T11:28:24.982Z,20.70
2019-05-19T11:30:52.567Z,20.70
2019-05-19T11:33:20.154Z,20.80
2019-05-19T11:35:47.790Z,20.80
2019-05-19T11:38:15.374Z,20.80
2019-05-19T11:40:43.558Z,20.80
2019-05-19T11:43:11.207Z,20.80
2019-05-19T11:45:38.793Z,20.80
2019-05-19T11:48:06.372Z,20.80
2019-05-19T11:50:34.306Z,20.80
2019-05-19T11:53:01.890Z,20.90
2019-05-19T11:55:29.470Z,20.90
2019-05-19T11:57:57.863Z,21.00
2019-05-19T12:00:26.214Z,21.10
2019-05-19T12:02:53.792Z,21.10
2019-05-19T12:05:22.387Z,21.30
2019-05-19T12:07:50.524Z,21.30
2019-05-19T12:10:18.163Z,21.30
2019-05-19T12:12:45.757Z,21.40
2019-05-19T12:15:13.380Z,21.60
2019-05-19T12:17:41.022Z,21.70
2019-05-19T12:20:09.363Z,21.90
2019-05-19T12:22:37.167Z,21.80
2019-05-19T12:25:04.724Z,22.00
2019-05-19T12:27:33.066Z,22.10
2019-05-19T12:30:00.698Z,22.10
2019-05-19T12:32:28.279Z,22.10
2019-05-19T12:34:55.860Z,22.20
2019-05-19T12:37:23.495Z,22.20
2019-05-19T12:39:51.078Z,22.20
2019-05-19T12:42:18.652Z,22.30
2019-05-19T12:44:46.289Z,22.40
2019-05-19T12:47:13.878Z,22.60
2019-05-19T12:49:41.457Z,22.60
2019-05-19T12:52:09.830Z,22.50
2019-05-19T12:54:38.194Z,22.40
2019-05-19T12:57:05.812Z,22.50
2019-05-19T12:59:33.401Z,22.40
2019-05-19T13:02:00.990Z,22.50
2019-05-19T13:04:28.597Z,22.50
2019-05-19T13:06:56.174Z,22.50
2019-05-19T13:09:23.757Z,22.50
2019-05-19T13:11:51.424Z,22.40
2019-05-19T13:14:19.016Z,22.50
2019-05-19T13:16:47.390Z,22.80
2019-05-19T13:19:15.338Z,22.70
2019-05-19T13:21:42.915Z,22.80
2019-05-19T13:24:11.272Z,23.00
2019-05-19T13:26:38.912Z,23.00
2019-05-19T13:29:06.496Z,23.20
2019-05-19T13:31:34.077Z,23.20
2019-05-19T13:34:02.551Z,23.30
2019-05-19T13:36:30.137Z,23.30
2019-05-19T13:38:58.552Z,23.20
2019-05-19T13:41:26.128Z,23.20
2019-05-19T13:43:53.709Z,23.10
2019-05-19T13:46:21.341Z,23.00
2019-05-19T13:48:48.918Z,23.00
2019-05-19T13:51:16.505Z,23.10
2019-05-19T13:53:44.176Z,23.10
2019-05-19T13:56:12.516Z,23.10
2019-05-19T13:58:40.380Z,23.10
2019-05-19T14:01:08.007Z,23.10
2019-05-19T14:03:35.590Z,23.00
2019-05-19T14:06:03.170Z,23.10
2019-05-19T14:08:30.769Z,23.10
2019-05-19T14:10:59.127Z,23.30
2019-05-19T14:13:26.750Z,23.30
2019-05-19T14:15:54.324Z,23.40
2019-05-19T14:18:22.202Z,23.40
2019-05-19T14:20:49.810Z,23.30
2019-05-19T14:23:18.163Z,23.20
2019-05-19T14:25:45.779Z,23.20
2019-05-19T14:28:13.356Z,23.20
2019-05-19T14:30:40.935Z,23.30
2019-05-19T14:33:08.541Z,23.20
2019-05-19T14:35:36.888Z,23.20
2019-05-19T14:38:04.493Z,23.20
2019-05-19T14:40:32.076Z,23.10
2019-05-19T14:42:59.691Z,23.10
2019-05-19T14:45:27.277Z,23.00
2019-05-19T14:47:54.870Z,22.90
2019-05-19T14:50:22.472Z,22.80
2019-05-19T14:52:50.055Z,22.80
2019-05-19T14:55:18.466Z,22.70
2019-05-19T14:57:46.786Z,22.60
2019-05-19T15:00:14.398Z,22.60
2019-05-19T15:02:41.985Z,22.50
2019-05-19T15:05:09.566Z,22.60
2019-05-19T15:07:37.252Z,22.60
2019-05-19T15:10:07.269Z,22.50
2019-05-19T15:12:35.620Z,22.40
2019-05-19T15:15:03.283Z,22.40
2019-05-19T15:17:30.865Z,22.30
2019-05-19T15:19:58.443Z,22.30
2019-05-19T15:22:26.860Z,22.10
2019-05-19T15:24:55.173Z,22.10
2019-05-19T15:27:22.748Z,22.10
2019-05-19T15:29:50.368Z,22.10
2019-05-19T15:32:17.931Z,22.00
2019-05-19T15:34:45.538Z,22.10
2019-05-19T15:37:13.115Z,22.10
2019-05-19T15:39:41.461Z,22.00
2019-05-19T15:42:09.649Z,22.00
2019-05-19T15:44:37.234Z,22.00
2019-05-19T15:47:05.633Z,22.00
2019-05-19T15:49:33.553Z,22.00
2019-05-19T15:52:04.109Z,22.00
2019-05-19T15:54:29.490Z,22.00
2019-05-19T15:56:57.138Z,22.10
2019-05-19T15:59:24.714Z,22.10
2019-05-19T16:01:52.805Z,22.10
2019-05-19T16:04:20.389Z,22.10
2019-05-19T16:06:48.793Z,22.10
2019-05-19T16:09:16.340Z,22.10
2019-05-19T16:11:43.924Z,22.10
2019-05-19T16:14:11.528Z,22.10
2019-05-19T16:16:39.118Z,22.10
2019-05-19T16:19:06.754Z,22.10
2019-05-19T16:21:34.331Z,22.10
2019-05-19T16:24:02.712Z,22.10
2019-05-19T16:26:31.475Z,22.20
2019-05-19T16:28:59.628Z,22.20
2019-05-19T16:31:27.222Z,22.40
2019-05-19T16:33:54.845Z,22.60
2019-05-19T16:36:22.428Z,22.80
2019-05-19T16:38:50.018Z,23.00
2019-05-19T16:41:18.407Z,23.50
2019-05-19T16:43:46.752Z,23.70
2019-05-19T16:46:14.328Z,23.70
2019-05-19T16:48:41.964Z,23.90
2019-05-19T16:51:09.530Z,23.90
2019-05-19T16:53:37.186Z,23.80
2019-05-19T16:56:04.775Z,23.80
2019-05-19T16:58:44.356Z,23.80
2019-05-19T17:01:00.734Z,23.50
2019-05-19T17:03:29.087Z,23.30
2019-05-19T17:05:56.706Z,23.30
2019-05-19T17:08:24.282Z,23.10
2019-05-19T17:10:51.960Z,22.90
2019-05-19T17:13:19.541Z,22.70
2019-05-19T17:15:47.114Z,22.50
2019-05-19T17:18:15.546Z,22.30
2019-05-19T17:20:43.128Z,22.30
2019-05-19T17:23:10.711Z,22.10
2019-05-19T17:25:38.648Z,22.00
2019-05-19T17:28:06.228Z,21.80
2019-05-19T17:30:34.387Z,21.60
2019-05-19T17:33:02.560Z,21.40
2019-05-19T17:35:30.144Z,21.40
2019-05-19T17:37:57.718Z,21.20
2019-05-19T17:40:25.327Z,21.20
2019-05-19T17:42:52.912Z,21.00
2019-05-19T17:45:20.578Z,20.80
2019-05-19T17:47:48.190Z,20.60
2019-05-19T17:50:15.753Z,20.40
2019-05-19T17:52:43.387Z,20.30
2019-05-19T17:55:10.980Z,20.20
2019-05-19T17:57:38.563Z,20.10
2019-05-19T18:00:09.673Z,20.20
2019-05-19T18:02:34.263Z,20.10
2019-05-19T18:05:02.903Z,19.80
2019-05-19T18:07:30.523Z,19.80
2019-05-19T18:09:58.104Z,19.60
2019-05-19T18:12:25.691Z,19.50
2019-05-19T18:14:53.296Z,19.40
2019-05-19T18:17:21.646Z,19.10
2019-05-19T18:19:49.343Z,19.20
2019-05-19T18:22:17.693Z,19.10
2019-05-19T18:24:45.282Z,19.10
2019-05-19T18:27:13.671Z,19.00
2019-05-19T18:29:42.029Z,18.90
2019-05-19T18:32:09.624Z,18.90
2019-05-19T18:34:37.288Z,18.80
2019-05-19T18:37:04.879Z,18.90
2019-05-19T18:39:32.476Z,18.80
2019-05-19T18:42:00.112Z,18.70
2019-05-19T18:44:27.712Z,18.60
2019-05-19T18:46:56.072Z,18.40
2019-05-19T18:49:23.697Z,18.30
2019-05-19T18:51:51.335Z,18.30
2019-05-19T18:54:19.737Z,18.30
2019-05-19T18:56:47.348Z,18.30
2019-05-19T18:59:14.935Z,18.20
2019-05-19T19:01:43.356Z,18.40
2019-05-19T19:04:11.732Z,18.40
2019-05-19T19:06:39.752Z,18.30
2019-05-19T19:09:07.402Z,18.20
2019-05-19T19:11:34.953Z,18.10
2019-05-19T19:14:02.537Z,18.20
2019-05-19T19:16:30.944Z,18.00
2019-05-19T19:18:58.537Z,18.00
2019-05-19T19:21:26.127Z,17.90
2019-05-19T19:23:53.767Z,17.80
2019-05-19T19:26:21.359Z,17.70
2019-05-19T19:28:48.949Z,17.80
2019-05-19T19:31:16.585Z,17.80
2019-05-19T19:33:44.174Z,17.70
2019-05-19T19:36:11.761Z,17.70
2019-05-19T19:38:39.397Z,17.70
2019-05-19T19:41:06.989Z,17.60
2019-05-19T19:43:34.575Z,17.60
2019-05-19T19:46:02.202Z,17.50
2019-05-19T19:48:29.790Z,17.40
2019-05-19T19:50:57.960Z,17.50
2019-05-19T19:53:25.547Z,17.50
2019-05-19T19:55:53.138Z,17.40
2019-05-19T19:58:22.524Z,17.40
2019-05-19T20:00:50.042Z,17.40
2019-05-19T20:03:17.635Z,17.40
2019-05-19T20:05:45.347Z,17.30
2019-05-19T20:08:12.884Z,17.20
2019-05-19T20:10:41.230Z,17.10
2019-05-19T20:13:08.867Z,17.10
2019-05-19T20:15:36.459Z,17.00
2019-05-19T20:18:04.047Z,17.00
2019-05-19T20:20:32.449Z,16.90
2019-05-19T20:23:00.039Z,16.90
2019-05-19T20:25:27.623Z,16.90
2019-05-19T20:27:55.267Z,16.80
2019-05-19T20:30:35.061Z,16.80
2019-05-19T20:32:50.440Z,16.80
2019-05-19T20:35:18.815Z,16.70
2019-05-19T20:37:47.208Z,16.70
2019-05-19T20:40:14.787Z,16.70
2019-05-19T20:42:42.372Z,16.60
2019-05-19T20:45:10.572Z,16.60
2019-05-19T20:47:38.161Z,16.60
2019-05-19T20:50:07.749Z,16.70
2019-05-19T20:52:34.148Z,16.70
2019-05-19T20:55:02.523Z,16.60
2019-05-19T20:57:30.185Z,16.60
2019-05-19T20:59:57.775Z,16.60
2019-05-19T21:02:25.373Z,16.50
2019-05-19T21:04:54.108Z,16.40
2019-05-19T21:07:21.708Z,16.40
2019-05-19T21:09:49.289Z,16.40
2019-05-19T21:12:17.436Z,16.30
2019-05-19T21:14:45.022Z,16.30
2019-05-19T21:17:13.372Z,16.40
2019-05-19T21:19:41.025Z,16.40
2019-05-19T21:22:08.613Z,16.40
2019-05-19T21:24:36.971Z,16.70
2019-05-19T21:27:04.607Z,16.70
2019-05-19T21:29:32.195Z,16.70
2019-05-19T21:31:59.786Z,16.70
2019-05-19T21:34:28.161Z,16.70
2019-05-19T21:36:56.520Z,16.70
2019-05-19T21:39:24.214Z,16.70
2019-05-19T21:41:52.576Z,16.50
2019-05-19T21:44:20.167Z,16.50
2019-05-19T21:46:48.104Z,16.40
2019-05-19T21:49:15.685Z,16.30
2019-05-19T21:51:44.061Z,16.10
2019-05-19T21:54:12.474Z,16.10
2019-05-19T21:56:40.066Z,16.10
2019-05-19T21:59:07.655Z,16.10
2019-05-19T22:01:35.718Z,16.10
2019-05-19T22:04:03.315Z,16.00
2019-05-19T22:06:31.664Z,16.20
2019-05-19T22:08:59.303Z,16.20
2019-05-19T22:11:26.904Z,16.20
2019-05-19T22:13:55.269Z,16.20
2019-05-19T22:16:22.902Z,16.10
2019-05-19T22:18:50.491Z,16.10
2019-05-19T22:21:18.083Z,16.20
2019-05-19T22:23:46.119Z,16.20
2019-05-19T22:26:13.715Z,16.20
2019-05-19T22:28:42.083Z,16.10
2019-05-19T22:31:10.747Z,16.00
2019-05-19T22:33:38.329Z,16.00
2019-05-19T22:36:06.683Z,15.90
2019-05-19T22:38:34.659Z,15.90
2019-05-19T22:41:02.258Z,15.90
2019-05-19T22:43:29.849Z,15.80
2019-05-19T22:45:58.367Z,15.80
2019-05-19T22:48:26.314Z,15.80
2019-05-19T22:50:53.900Z,15.70
2019-05-19T22:53:21.524Z,15.70
2019-05-19T22:55:49.124Z,15.70
2019-05-19T22:58:16.762Z,15.80
2019-05-19T23:00:44.373Z,15.80
2019-05-19T23:03:12.719Z,15.90
2019-05-19T23:05:41.111Z,15.90
2019-05-19T23:08:08.716Z,15.90
2019-05-19T23:10:36.316Z,15.90
2019-05-19T23:13:03.943Z,16.10
2019-05-19T23:15:31.527Z,16.00
2019-05-19T23:17:59.120Z,16.10
2019-05-19T23:20:26.747Z,16.00
2019-05-19T23:22:54.345Z,15.90
2019-05-19T23:25:21.938Z,15.90
2019-05-19T23:27:49.557Z,15.80
2019-05-19T23:30:17.152Z,15.90
2019-05-19T23:32:45.554Z,15.70
2019-05-19T23:35:13.139Z,15.70
2019-05-19T23:37:40.728Z,15.50
2019-05-19T23:40:08.357Z,15.50
2019-05-19T23:42:35.953Z,15.40
2019-05-19T23:45:03.529Z,15.30
2019-05-19T23:47:31.232Z,15.20
2019-05-19T23:49:58.738Z,15.10
2019-05-19T23:52:26.322Z,15.10
2019-05-19T23:54:54.721Z,15.00
2019-05-19T23:57:23.080Z,14.90
2019-05-19T23:59:51.238Z,14.90
